createdAt,value
2018-07-21T00:00:45.900Z,100513.00
2018-07-21T00:05:39.150Z,100520.00
2018-07-21T00:10:32.378Z,100522.00
2018-07-21T00:15:25.566Z,100518.00
2018-07-21T00:20:18.833Z,100525.00
2018-07-21T00:25:12.118Z,100511.00
2018-07-21T00:30:05.603Z,100512.00
2018-07-21T00:34:58.885Z,100506.00
2018-07-21T00:39:52.157Z,100501.00
2018-07-21T00:44:45.437Z,100502.00
2018-07-21T00:49:38.669Z,100501.00
2018-07-21T00:54:31.915Z,100503.00
2018-07-21T00:59:25.239Z,100503.00
2018-07-21T01:04:18.514Z,100507.00
2018-07-21T01:09:11.793Z,100514.00
2018-07-21T01:14:05.371Z,100519.00
2018-07-21T01:18:58.583Z,100524.00
2018-07-21T01:23:51.829Z,100511.00
2018-07-21T01:28:45.071Z,100506.00
2018-07-21T01:33:38.282Z,100500.00
2018-07-21T01:38:31.575Z,100510.00
2018-07-21T01:43:24.885Z,100495.00
2018-07-21T01:48:18.159Z,100503.00
2018-07-21T01:53:11.372Z,100505.00
2018-07-21T01:58:04.908Z,100501.00
2018-07-21T02:02:58.141Z,100490.00
2018-07-21T02:07:51.393Z,100492.00
2018-07-21T02:12:44.737Z,100489.00
2018-07-21T02:17:37.952Z,100486.00
2018-07-21T02:22:31.206Z,100476.00
2018-07-21T02:27:24.510Z,100473.00
2018-07-21T02:32:17.728Z,100475.00
2018-07-21T02:37:13.406Z,100470.00
2018-07-21T02:42:06.693Z,100468.00
2018-07-21T02:46:59.964Z,100461.00
2018-07-21T02:51:53.176Z,100460.00
2018-07-21T02:56:46.432Z,100463.00
2018-07-21T03:01:39.693Z,100482.00
2018-07-21T03:06:32.977Z,100484.00
2018-07-21T03:11:26.262Z,100480.00
2018-07-21T03:16:19.518Z,100480.00
2018-07-21T03:21:12.750Z,100476.00
2018-07-21T03:26:05.920Z,100473.00
2018-07-21T03:30:59.176Z,100470.00
2018-07-21T03:35:52.798Z,100471.00
2018-07-21T03:40:45.955Z,100477.00
2018-07-21T03:45:39.192Z,100470.00
2018-07-21T03:50:33.202Z,100474.00
2018-07-21T03:55:26.438Z,100478.00
2018-07-21T04:00:19.681Z,100477.00
2018-07-21T04:05:12.960Z,100485.00
2018-07-21T04:10:06.166Z,100483.00
2018-07-21T04:14:59.423Z,100491.00
2018-07-21T04:19:52.879Z,100499.00
2018-07-21T04:24:46.098Z,100505.00
2018-07-21T04:29:39.330Z,100496.00
2018-07-21T04:34:32.450Z,100500.00
2018-07-21T04:39:25.692Z,100501.00
2018-07-21T04:44:18.943Z,100510.00
2018-07-21T04:49:12.173Z,100515.00
2018-07-21T04:54:05.402Z,100523.00
2018-07-21T04:58:58.540Z,100524.00
2018-07-21T05:03:51.877Z,100522.00
2018-07-21T05:08:45.878Z,100535.00
2018-07-21T05:13:39.843Z,100537.00
2018-07-21T05:18:33.098Z,100537.00
2018-07-21T05:23:26.534Z,100533.00
2018-07-21T05:28:19.758Z,100536.00
2018-07-21T05:33:13.024Z,100537.00
2018-07-21T05:38:06.318Z,100531.00
2018-07-21T05:42:59.483Z,100526.00
2018-07-21T05:47:52.626Z,100527.00
2018-07-21T05:52:45.917Z,100541.00
2018-07-21T05:57:39.192Z,100550.00
2018-07-21T06:02:32.469Z,100541.00
2018-07-21T06:07:25.840Z,100536.00
2018-07-21T06:12:22.090Z,100547.00
2018-07-21T06:17:15.247Z,100575.00
2018-07-21T06:22:08.487Z,100565.00
2018-07-21T06:27:01.744Z,100569.00
2018-07-21T06:31:56.053Z,100571.00
2018-07-21T06:36:49.335Z,100582.00
2018-07-21T06:41:42.666Z,100589.00
2018-07-21T06:46:36.174Z,100583.00
2018-07-21T06:51:30.309Z,100583.00
2018-07-21T06:56:23.693Z,100582.00
2018-07-21T07:01:17.212Z,100586.00
2018-07-21T07:06:10.376Z,100584.00
2018-07-21T07:11:03.554Z,100587.00
2018-07-21T07:15:56.701Z,100579.00
2018-07-21T07:20:50.061Z,100578.00
2018-07-21T07:25:43.298Z,100576.00
2018-07-21T07:30:36.589Z,100576.00
2018-07-21T07:35:30.186Z,100575.00
2018-07-21T07:40:23.485Z,100584.00
2018-07-21T07:45:16.741Z,100566.00
2018-07-21T07:50:09.988Z,100561.00
2018-07-21T07:55:03.225Z,100562.00
2018-07-21T07:59:56.496Z,100561.00
2018-07-21T08:04:49.863Z,100547.00
2018-07-21T08:09:43.123Z,100543.00
2018-07-21T08:14:36.341Z,100542.00
2018-07-21T08:19:29.745Z,100534.00
2018-07-21T08:24:22.948Z,100535.00
2018-07-21T08:29:16.296Z,100520.00
2018-07-21T08:34:09.625Z,100527.00
2018-07-21T08:39:03.050Z,100521.00
2018-07-21T08:43:56.374Z,100523.00
2018-07-21T08:48:49.640Z,100519.00
2018-07-21T08:53:45.054Z,100518.00
2018-07-21T08:58:38.303Z,100520.00
2018-07-21T09:03:31.534Z,100516.00
2018-07-21T09:08:24.774Z,100527.00
2018-07-21T09:13:18.016Z,100515.00
2018-07-21T09:18:11.248Z,100519.00
2018-07-21T09:23:04.585Z,100511.00
2018-07-21T09:27:57.822Z,100526.00
2018-07-21T09:32:51.197Z,100511.00
2018-07-21T09:37:44.332Z,100513.00
2018-07-21T09:42:37.536Z,100510.00
2018-07-21T09:47:30.732Z,100512.00
2018-07-21T09:52:23.960Z,100514.00
2018-07-21T09:57:17.197Z,100514.00
2018-07-21T10:02:10.469Z,100517.00
2018-07-21T10:07:04.002Z,100525.00
2018-07-21T10:11:57.291Z,100523.00
2018-07-21T10:16:50.442Z,100524.00
2018-07-21T10:21:43.758Z,100521.00
2018-07-21T10:26:42.670Z,100517.00
2018-07-21T10:31:36.362Z,100524.00
2018-07-21T10:36:29.593Z,100516.00
2018-07-21T10:41:22.884Z,100519.00
2018-07-21T10:46:16.288Z,100518.00
2018-07-21T10:51:09.561Z,100513.00
2018-07-21T10:56:02.815Z,100506.00
2018-07-21T11:00:56.069Z,100507.00
2018-07-21T11:05:49.631Z,100500.00
2018-07-21T11:10:42.995Z,100500.00
2018-07-21T11:15:36.324Z,100496.00
2018-07-21T11:20:29.496Z,100492.00
2018-07-21T11:25:23.091Z,100488.00
2018-07-21T11:30:16.311Z,100498.00
2018-07-21T11:35:09.611Z,100489.00
2018-07-21T11:40:03.062Z,100495.00
2018-07-21T11:44:56.315Z,100498.00
2018-07-21T11:49:49.576Z,100492.00
2018-07-21T11:54:43.304Z,100497.00
2018-07-21T11:59:36.532Z,100505.00
2018-07-21T12:04:30.473Z,100505.00
2018-07-21T12:09:23.906Z,100506.00
2018-07-21T12:14:17.113Z,100500.00
2018-07-21T12:19:10.343Z,100508.00
2018-07-21T12:24:03.899Z,100512.00
2018-07-21T12:28:57.201Z,100514.00
2018-07-21T12:33:50.447Z,100501.00
2018-07-21T12:38:43.666Z,100500.00
2018-07-21T12:43:36.977Z,100499.00
2018-07-21T12:48:30.243Z,100497.00
2018-07-21T12:53:23.518Z,100493.00
2018-07-21T12:58:16.763Z,100487.00
2018-07-21T13:03:09.986Z,100482.00
2018-07-21T13:08:03.359Z,100475.00
2018-07-21T13:12:56.585Z,100478.00
2018-07-21T13:17:49.909Z,100470.00
2018-07-21T13:22:43.123Z,100465.00
2018-07-21T13:27:36.498Z,100462.00
2018-07-21T13:32:29.728Z,100457.00
2018-07-21T13:37:22.987Z,100462.00
2018-07-21T13:42:16.203Z,100460.00
2018-07-21T13:47:09.350Z,100469.00
2018-07-21T13:52:02.582Z,100463.00
2018-07-21T13:56:55.838Z,100461.00
2018-07-21T14:01:49.022Z,100458.00
2018-07-21T14:06:42.263Z,100454.00
2018-07-21T14:11:35.500Z,100462.00
2018-07-21T14:16:28.729Z,100457.00
2018-07-21T14:21:21.875Z,100456.00
2018-07-21T14:26:15.123Z,100462.00
2018-07-21T14:31:08.477Z,100456.00
2018-07-21T14:36:01.707Z,100462.00
2018-07-21T14:40:54.953Z,100461.00
2018-07-21T14:45:48.235Z,100464.00
2018-07-21T14:50:41.483Z,100461.00
2018-07-21T14:55:34.785Z,100469.00
2018-07-21T15:00:28.106Z,100467.00
2018-07-21T15:05:21.683Z,100464.00
2018-07-21T15:10:14.819Z,100464.00
2018-07-21T15:15:08.141Z,100460.00
2018-07-21T15:20:01.392Z,100457.00
2018-07-21T15:24:54.687Z,100457.00
2018-07-21T15:29:47.983Z,100457.00
2018-07-21T15:34:41.294Z,100450.00
2018-07-21T15:39:34.595Z,100447.00
2018-07-21T15:44:27.895Z,100445.00
2018-07-21T15:49:21.147Z,100447.00
2018-07-21T15:54:14.353Z,100448.00
2018-07-21T15:59:07.996Z,100462.00
2018-07-21T16:04:01.211Z,100462.00
2018-07-21T16:08:54.465Z,100471.00
2018-07-21T16:13:47.589Z,100474.00
2018-07-21T16:18:40.823Z,100488.00
2018-07-21T16:23:34.096Z,100482.00
2018-07-21T16:28:27.409Z,100492.00
2018-07-21T16:33:20.695Z,100490.00
2018-07-21T16:38:13.962Z,100492.00
2018-07-21T16:43:07.309Z,100495.00
2018-07-21T16:48:00.551Z,100503.00
2018-07-21T16:52:54.625Z,100506.00
2018-07-21T16:57:50.108Z,100507.00
2018-07-21T17:02:44.793Z,100506.00
2018-07-21T17:07:39.675Z,100508.00
2018-07-21T17:12:34.574Z,100510.00
2018-07-21T17:17:29.189Z,100501.00
2018-07-21T17:22:22.390Z,100504.00
2018-07-21T17:27:15.803Z,100507.00
2018-07-21T17:32:09.084Z,100503.00
2018-07-21T17:37:02.385Z,100504.00
2018-07-21T17:41:56.517Z,100508.00
2018-07-21T17:46:49.684Z,100509.00
2018-07-21T17:51:43.253Z,100509.00
2018-07-21T17:56:36.545Z,100514.00
2018-07-21T18:01:29.698Z,100514.00
2018-07-21T18:06:22.927Z,100515.00
2018-07-21T18:11:16.222Z,100515.00
2018-07-21T18:16:09.533Z,100518.00
2018-07-21T18:21:02.706Z,100521.00
2018-07-21T18:25:56.058Z,100520.00
2018-07-21T18:30:49.435Z,100525.00
2018-07-21T18:35:42.669Z,100538.00
2018-07-21T18:40:35.997Z,100537.00
2018-07-21T18:45:31.542Z,100546.00
2018-07-21T18:50:24.908Z,100558.00
2018-07-21T18:55:19.163Z,100559.00
2018-07-21T19:00:12.453Z,100567.00
2018-07-21T19:05:05.807Z,100571.00
2018-07-21T19:09:59.062Z,100572.00
2018-07-21T19:14:52.291Z,100574.00
2018-07-21T19:19:51.418Z,100567.00
2018-07-21T19:24:44.562Z,100563.00
2018-07-21T19:29:37.973Z,100569.00
2018-07-21T19:34:31.210Z,100571.00
2018-07-21T19:39:25.484Z,100578.00
2018-07-21T19:44:18.701Z,100581.00
2018-07-21T19:49:16.913Z,100588.00
2018-07-21T19:54:10.103Z,100596.00
2018-07-21T19:59:03.996Z,100602.00
2018-07-21T20:03:57.486Z,100601.00
2018-07-21T20:08:50.734Z,100608.00
2018-07-21T20:13:43.942Z,100618.00
2018-07-21T20:18:37.805Z,100618.00
2018-07-21T20:23:31.980Z,100623.00
2018-07-21T20:28:26.522Z,100624.00
2018-07-21T20:33:21.382Z,100635.00
2018-07-21T20:38:15.226Z,100636.00
2018-07-21T20:43:08.481Z,100640.00
2018-07-21T20:48:01.786Z,100638.00
2018-07-21T20:52:54.993Z,100638.00
2018-07-21T20:57:48.287Z,100649.00
2018-07-21T21:02:41.551Z,100646.00
2018-07-21T21:07:34.771Z,100649.00
2018-07-21T21:12:27.999Z,100655.00
2018-07-21T21:17:21.256Z,100653.00
2018-07-21T21:22:14.565Z,100650.00
2018-07-21T21:27:08.353Z,100647.00
2018-07-21T21:32:01.557Z,100642.00
2018-07-21T21:36:54.801Z,100654.00
2018-07-21T21:41:48.091Z,100653.00
2018-07-21T21:46:41.315Z,100659.00
2018-07-21T21:51:34.575Z,100658.00
2018-07-21T21:56:27.839Z,100666.00
2018-07-21T22:01:21.166Z,100659.00
2018-07-21T22:06:14.479Z,100662.00
2018-07-21T22:11:07.629Z,100662.00
2018-07-21T22:16:00.966Z,100669.00
2018-07-21T22:20:54.243Z,100675.00
2018-07-21T22:25:47.468Z,100677.00
2018-07-21T22:30:40.599Z,100677.00
2018-07-21T22:35:33.834Z,100684.00
2018-07-21T22:40:27.134Z,100688.00
2018-07-21T22:45:20.348Z,100693.00
2018-07-21T22:50:13.612Z,100691.00
2018-07-21T22:55:06.850Z,100689.00
2018-07-21T23:00:00.285Z,100696.00
2018-07-21T23:04:53.437Z,100701.00
2018-07-21T23:09:46.684Z,100698.00
2018-07-21T23:14:39.911Z,100698.00
2018-07-21T23:19:33.179Z,100701.00
2018-07-21T23:24:26.307Z,100703.00
2018-07-21T23:29:19.572Z,100707.00
2018-07-21T23:34:12.863Z,100706.00
2018-07-21T23:39:09.259Z,100708.00
2018-07-21T23:44:03.520Z,100709.00
2018-07-21T23:48:56.778Z,100711.00
2018-07-21T23:53:50.065Z,100712.00
2018-07-21T23:58:43.298Z,100713.00
